Time;durP1;ratioP1;P1;durP2;ratioP2;P2;SDS_P1;SDS_P2;PMS_P1;PMS_P2;Temp;Humidity;BMP_temperature;BMP_pressure;BME280_temperature;BME280_humidity;BME280_pressure;Samples;Min_cycle;Max_cycle;Signal;HPM_P1;HPM_P2
2023/09/06 00:00:00;;;;;;;;;;;;;;;-146.25;100.00;52100.56;2097104;28;37153;-64
2023/09/06 00:01:16;;;;;;;;;;;;;;;-146.25;100.00;52051.91;2097613;28;19925;-64
2023/09/06 00:02:17;;;;;;;;;;;;;;;-146.25;100.00;52047.84;2097562;28;20880;-64
2023/09/06 00:03:19;;;;;;;;;;;;;;;-146.25;100.00;52051.91;2097048;28;39116;-64
2023/09/06 00:04:25;;;;;;;;;;;;;;;-146.25;100.00;52027.56;2096672;28;38479;-64
2023/09/06 00:05:27;;;;;;;;;;;;;;;-146.25;100.00;52051.91;2096982;28;32738;-64
2023/09/06 00:06:28;;;;;;;;;;;;;;;-146.25;100.00;52051.91;2096704;28;37208;-63
2023/09/06 00:07:30;;;;;;;;;;;;;;;-146.25;100.00;52051.91;2096791;28;40039;-64
2023/09/06 00:08:34;;;;;;;;;;;;;;;-146.25;100.00;52035.69;2097583;28;20013;-64
2023/09/06 00:09:36;;;;;;;;;;;;;;;-146.25;100.00;52070.16;2095473;28;42396;-64
2023/09/06 00:10:39;;;;;;;;;;;;;;;-146.25;100.00;52049.88;2096162;28;33363;-64
2023/09/06 00:11:41;;;;;;;;;;;;;;;-146.25;100.00;52041.75;2096544;28;34632;-64
2023/09/06 00:12:45;;;;;;;;;;;;;;;-146.25;100.00;52053.94;2096582;28;40289;-64
2023/09/06 00:13:46;;;;;;;;;;;;;;;-146.25;100.00;52060.00;2096839;28;34410;-64
2023/09/06 00:14:48;;;;;;;;;;;;;;;-146.25;100.00;52068.13;2096976;28;37131;-64
2023/09/06 00:15:50;;;;;;;;;;;;;;;-146.25;100.00;52045.81;2096900;28;33662;-64
2023/09/06 00:16:51;;;;;;;;;;;;;;;-146.25;100.00;52039.75;2096683;28;36390;-65
2023/09/06 00:17:53;;;;;;;;;;;;;;;-146.25;100.00;52011.34;2096379;28;39961;-64
2023/09/06 00:18:59;;;;;;;;;;;;;;;-146.25;100.00;52055.97;2097121;28;19928;-64
2023/09/06 00:20:01;;;;;;;;;;;;;;;-146.25;100.00;52055.97;2096638;28;36444;-64
2023/09/06 00:21:05;;;;;;;;;;;;;;;-146.25;100.00;52029.59;2096612;28;35045;-64
2023/09/06 00:22:09;;;;;;;;;;;;;;;-146.25;100.00;52084.34;2096098;28;36751;-63
2023/09/06 00:23:13;;;;;;;;;;;;;;;-146.25;100.00;52064.06;2096461;28;39277;-64
2023/09/06 00:24:15;;;;;;;;;;;;;;;-146.25;100.00;52060.00;2096765;28;34979;-64
2023/09/06 00:25:16;;;;;;;;;;;;;;;-146.25;100.00;52031.63;2096520;28;35205;-65
2023/09/06 00:26:18;;;;;;;;;;;;;;;-146.25;100.00;52023.53;2096920;28;38554;-64
2023/09/06 00:27:20;;;;;;;;;;;;;;;-146.25;100.00;52066.09;2097339;28;19913;-64
2023/09/06 00:28:24;;;;;;;;;;;;;;;-146.25;100.00;52084.34;2097174;28;22373;-64
2023/09/06 00:29:27;;;;;;;;;;;;;;;-146.25;100.00;52062.03;2096439;28;19927;-64
2023/09/06 00:30:29;;;;;;;;;;;;;;;-146.25;100.00;52043.78;2087655;28;25758;-64
2023/09/06 00:31:31;;;;;;;;;;;;;;;-146.25;100.00;52064.06;2097376;28;21308;-64
2023/09/06 00:32:33;;;;;;;;;;;;;;;-146.25;100.00;52080.28;2096869;28;32482;-64
2023/09/06 00:33:37;;;;;;;;;;;;;;;-146.25;100.00;52074.22;2097087;28;24222;-64
2023/09/06 00:34:39;;;;;;;;;;;;;;;-146.25;100.00;52064.06;2097557;28;20010;-64
2023/09/06 00:35:41;;;;;;;;;;;;;;;-146.25;100.00;52035.69;2096814;28;27185;-64
2023/09/06 00:36:42;;;;;;;;;;;;;;;-146.25;100.00;52021.50;2096806;28;29710;-63
2023/09/06 00:37:45;;;;;;;;;;;;;;;-146.25;100.00;52031.63;2096607;28;20034;-63
2023/09/06 00:38:46;;;;;;;;;;;;;;;-146.25;100.00;52045.81;2087412;28;37475;-64
2023/09/06 00:39:48;;;;;;;;;;;;;;;-146.25;100.00;52072.19;2087602;28;30456;-64
2023/09/06 00:40:51;;;;;;;;;;;;;;;-146.25;100.00;52055.97;2096100;28;26277;-64
2023/09/06 00:41:53;;;;;;;;;;;;;;;-146.25;100.00;52055.97;2104217;28;24319;-64
2023/09/06 00:43:01;;;;;;;;;;;;;;;-146.25;100.00;52039.75;2095929;28;36345;-64
2023/09/06 00:44:05;;;;;;;;;;;;;;;-146.25;100.00;52064.06;2096214;28;26402;-64
2023/09/06 00:45:09;;;;;;;;;;;;;;;-146.25;100.00;52084.34;2097405;28;20071;-64
2023/09/06 00:46:10;;;;;;;;;;;;;;;-146.25;100.00;52060.00;2096727;28;31628;-64
2023/09/06 00:47:12;;;;;;;;;;;;;;;-146.25;100.00;52039.75;2095870;28;33094;-64
2023/09/06 00:48:17;;;;;;;;;;;;;;;-146.25;100.00;52039.75;2096322;28;32946;-64
2023/09/06 00:49:19;;;;;;;;;;;;;;;-146.25;100.00;52074.22;2103461;28;33156;-64
2023/09/06 00:50:23;;;;;;;;;;;;;;;-146.25;100.00;52068.13;2096963;28;26646;-64
2023/09/06 00:51:26;;;;;;;;;;;;;;;-146.25;100.00;52074.22;2096554;28;30383;-64
2023/09/06 00:52:32;;;;;;;;;;;;;;;-146.25;100.00;52060.00;2096405;28;19927;-63
2023/09/06 00:53:34;;;;;;;;;;;;;;;-146.25;100.00;52031.63;2096315;28;21339;-64
2023/09/06 00:54:39;;;;;;;;;;;;;;;-146.25;100.00;52088.41;2097019;28;19924;-64
2023/09/06 00:55:42;;;;;;;;;;;;;;;-146.25;100.00;52066.09;2096355;28;31911;-64
2023/09/06 00:56:46;;;;;;;;;;;;;;;-146.25;100.00;52031.63;2096436;28;20659;-64
2023/09/06 00:57:49;;;;;;;;;;;;;;;-146.25;100.00;52068.13;2087450;28;29827;-64
2023/09/06 00:58:50;;;;;;;;;;;;;;;-146.25;100.00;52039.75;2096065;28;31328;-64
2023/09/06 00:59:55;;;;;;;;;;;;;;;-146.25;100.00;52088.41;2096644;28;26949;-64
2023/09/06 01:00:57;;;;;;;;;;;;;;;-146.25;100.00;52074.22;2096696;28;30554;-64
2023/09/06 01:02:02;;;;;;;;;;;;;;;-146.25;100.00;52072.19;2096015;28;31159;-65
2023/09/06 01:03:04;;;;;;;;;;;;;;;-146.25;100.00;52070.16;2097036;28;28048;-63
2023/09/06 01:04:06;;;;;;;;;;;;;;;-146.25;100.00;52041.75;2096363;28;19924;-64
2023/09/06 01:05:08;;;;;;;;;;;;;;;-146.25;100.00;52080.28;2095881;28;28192;-64
2023/09/06 01:06:27;;;;;;;;;;;;;;;-146.25;100.00;52074.22;2096587;28;35010;-63
2023/09/06 01:07:34;;;;;;;;;;;;;;;-146.25;100.00;52068.13;2096183;28;26614;-63
2023/09/06 01:08:42;;;;;;;;;;;;;;;-146.25;100.00;52037.72;2088503;28;30353;-64
2023/09/06 01:09:44;;;;;;;;;;;;;;;-146.25;100.00;52092.44;2096209;28;20843;-64
2023/09/06 01:10:45;;;;;;;;;;;;;;;-146.25;100.00;52058.00;2096075;28;31402;-64
2023/09/06 01:11:47;;;;;;;;;;;;;;;-146.25;100.00;52080.28;2096072;28;19928;-64
2023/09/06 01:12:49;;;;;;;;;;;;;;;-146.25;100.00;52098.53;2087915;28;28469;-64
2023/09/06 01:13:56;;;;;;;;;;;;;;;-146.25;100.00;52104.63;2087464;28;32028;-65
2023/09/06 01:15:00;;;;;;;;;;;;;;;-146.25;100.00;52096.50;2088137;28;27545;-66
2023/09/06 01:16:02;;;;;;;;;;;;;;;-146.25;100.00;52088.41;2088517;28;19987;-63
2023/09/06 01:17:04;;;;;;;;;;;;;;;-146.25;100.00;52108.66;2095758;28;31057;-64
2023/09/06 01:18:08;;;;;;;;;;;;;;;-146.25;100.00;52120.84;2087385;28;31552;-64
2023/09/06 01:19:13;;;;;;;;;;;;;;;-146.25;100.00;52072.19;2080360;28;20043;-64
2023/09/06 01:20:23;;;;;;;;;;;;;;;-146.25;100.00;52098.53;2088277;28;20418;-64
2023/09/06 01:21:38;;;;;;;;;;;;;;;-146.25;100.00;52102.59;2089263;28;30837;-64
2023/09/06 01:22:47;;;;;;;;;;;;;;;-146.25;100.00;52104.63;2089498;28;19928;-64
2023/09/06 01:23:51;;;;;;;;;;;;;;;-146.25;100.00;52076.22;2089062;28;35677;-64
2023/09/06 01:24:53;;;;;;;;;;;;;;;-146.25;100.00;52043.78;2089638;28;26259;-64
2023/09/06 01:25:55;;;;;;;;;;;;;;;-146.25;100.00;52086.38;2089654;28;31507;-64
2023/09/06 01:26:58;;;;;;;;;;;;;;;-146.25;100.00;52082.31;2089204;28;20084;-64
2023/09/06 01:28:00;;;;;;;;;;;;;;;-146.25;100.00;52090.44;2088750;28;33677;-64
2023/09/06 01:29:03;;;;;;;;;;;;;;;-146.25;100.00;52078.25;2089073;28;30369;-64
2023/09/06 01:30:07;;;;;;;;;;;;;;;-146.25;100.00;52039.75;2097224;28;29708;-64
2023/09/06 01:31:08;;;;;;;;;;;;;;;-146.25;100.00;52078.25;2089741;28;30107;-64
2023/09/06 01:32:10;;;;;;;;;;;;;;;-146.25;100.00;52084.34;2089524;28;33956;-64
2023/09/06 01:33:16;;;;;;;;;;;;;;;-146.25;100.00;52080.28;2089639;28;31102;-64
2023/09/06 01:34:18;;;;;;;;;;;;;;;-146.25;100.00;52118.81;2090362;28;20757;-64
2023/09/06 01:35:20;;;;;;;;;;;;;;;-146.25;100.00;52076.22;2088619;28;38262;-63
2023/09/06 01:36:21;;;;;;;;;;;;;;;-146.25;100.00;52058.00;2089109;28;27584;-65
2023/09/06 01:37:23;;;;;;;;;;;;;;;-146.25;100.00;52112.72;2089901;28;25513;-64
2023/09/06 01:38:25;;;;;;;;;;;;;;;-146.25;100.00;52114.75;2089558;28;31292;-64
2023/09/06 01:39:27;;;;;;;;;;;;;;;-146.25;100.00;52108.66;2089408;28;34459;-64
2023/09/06 01:40:31;;;;;;;;;;;;;;;-146.25;100.00;52072.19;2089170;28;28668;-64
2023/09/06 01:41:33;;;;;;;;;;;;;;;-146.25;100.00;52076.22;2096975;28;39189;-63
2023/09/06 01:42:34;;;;;;;;;;;;;;;-146.25;100.00;52100.56;2098002;28;25677;-64
2023/09/06 01:43:36;;;;;;;;;;;;;;;-146.25;100.00;52106.66;2098064;28;28604;-64
2023/09/06 01:44:37;;;;;;;;;;;;;;;-146.25;100.00;52104.63;2098046;28;28552;-64
2023/09/06 01:45:48;;;;;;;;;;;;;;;-146.25;100.00;52039.75;2097636;28;29689;-64
2023/09/06 01:46:50;;;;;;;;;;;;;;;-146.25;100.00;52072.19;2098090;28;31867;-64
2023/09/06 01:47:53;;;;;;;;;;;;;;;-146.25;100.00;52098.53;2097753;28;31370;-64
2023/09/06 01:48:56;;;;;;;;;;;;;;;-146.25;100.00;52074.22;2098309;28;19927;-64
2023/09/06 01:49:58;;;;;;;;;;;;;;;-146.25;100.00;52068.13;2098102;28;30976;-64
2023/09/06 01:51:03;;;;;;;;;;;;;;;-146.25;100.00;52090.44;2097882;28;19925;-63
2023/09/06 01:52:05;;;;;;;;;;;;;;;-146.25;100.00;52102.59;2097545;28;21123;-64
2023/09/06 01:53:07;;;;;;;;;;;;;;;-146.25;100.00;52096.50;2097908;28;33521;-64
2023/09/06 01:54:11;;;;;;;;;;;;;;;-146.25;100.00;52084.34;2097980;28;28481;-64
2023/09/06 01:55:12;;;;;;;;;;;;;;;-146.25;100.00;52096.50;2097695;28;28277;-64
2023/09/06 01:56:14;;;;;;;;;;;;;;;-146.25;100.00;52072.19;2098601;28;19927;-64
2023/09/06 01:57:17;;;;;;;;;;;;;;;-146.25;100.00;52082.31;2098350;28;19924;-64
2023/09/06 01:58:18;;;;;;;;;;;;;;;-146.25;100.00;52088.41;2097186;28;19924;-64
2023/09/06 01:59:23;;;;;;;;;;;;;;;-146.25;100.00;52066.09;2089246;28;20024;-65
2023/09/06 02:00:27;;;;;;;;;;;;;;;-146.25;100.00;52092.44;2096576;28;20035;-64
2023/09/06 02:01:30;;;;;;;;;;;;;;;-146.25;100.00;52086.38;2096804;28;30284;-64
2023/09/06 02:02:32;;;;;;;;;;;;;;;-146.25;100.00;52108.66;2097959;28;19924;-64
2023/09/06 02:03:34;;;;;;;;;;;;;;;-146.25;100.00;52088.41;2097716;28;31420;-64
2023/09/06 02:04:37;;;;;;;;;;;;;;;-146.25;100.00;52041.75;2097961;28;33042;-64
2023/09/06 02:05:41;;;;;;;;;;;;;;;-146.25;100.00;52047.84;2096677;28;36459;-63
2023/09/06 02:06:43;;;;;;;;;;;;;;;-146.25;100.00;52064.06;2089076;28;26832;-64
2023/09/06 02:07:46;;;;;;;;;;;;;;;-146.25;100.00;52090.44;2096842;28;33389;-63
2023/09/06 02:08:49;;;;;;;;;;;;;;;-146.25;100.00;52072.19;2098273;28;19983;-64
2023/09/06 02:09:55;;;;;;;;;;;;;;;-146.25;100.00;52090.44;2097546;28;19909;-64
2023/09/06 02:10:57;;;;;;;;;;;;;;;-146.25;100.00;52080.28;2096613;28;32911;-64
2023/09/06 02:11:59;;;;;;;;;;;;;;;-146.25;100.00;52066.09;2088656;28;19931;-65
2023/09/06 02:13:01;;;;;;;;;;;;;;;-146.25;100.00;52124.91;2088862;28;32188;-64
2023/09/06 02:14:03;;;;;;;;;;;;;;;-146.25;100.00;52086.38;2088980;28;19932;-64
2023/09/06 02:15:06;;;;;;;;;;;;;;;-146.25;100.00;52070.16;2088446;28;29359;-64
2023/09/06 02:16:07;;;;;;;;;;;;;;;-146.25;100.00;52092.44;2097089;28;20051;-64
2023/09/06 02:17:09;;;;;;;;;;;;;;;-146.25;100.00;52072.19;2080666;28;20765;-64
2023/09/06 02:18:15;;;;;;;;;;;;;;;-146.25;100.00;52074.22;2081244;28;19921;-64
2023/09/06 02:19:17;;;;;;;;;;;;;;;-146.25;100.00;52070.16;2096250;28;28931;-64
2023/09/06 02:20:22;;;;;;;;;;;;;;;-146.25;100.00;52130.97;2089415;28;24697;-63
2023/09/06 02:21:25;;;;;;;;;;;;;;;-146.25;100.00;52108.66;2089258;28;26386;-64
2023/09/06 02:22:27;;;;;;;;;;;;;;;-146.25;100.00;52116.78;2089290;28;26428;-64
2023/09/06 02:23:29;;;;;;;;;;;;;;;-146.25;100.00;52049.88;2088967;28;19917;-64
2023/09/06 02:24:30;;;;;;;;;;;;;;;-146.25;100.00;52064.06;2080452;28;32624;-64
2023/09/06 02:25:33;;;;;;;;;;;;;;;-146.25;100.00;52060.00;2088981;28;19921;-64
2023/09/06 02:26:36;;;;;;;;;;;;;;;-146.25;100.00;52076.22;2088904;28;33109;-64
2023/09/06 02:27:40;;;;;;;;;;;;;;;-146.25;100.00;52088.41;2089593;28;25432;-64
2023/09/06 02:28:41;;;;;;;;;;;;;;;-146.25;100.00;52090.44;2088871;28;35600;-63
2023/09/06 02:29:43;;;;;;;;;;;;;;;-146.25;100.00;52088.41;2089361;28;32147;-63
2023/09/06 02:30:46;;;;;;;;;;;;;;;-146.25;100.00;52116.78;2089607;28;20049;-64
2023/09/06 02:31:49;;;;;;;;;;;;;;;-146.25;100.00;52104.63;2089217;28;24346;-64
2023/09/06 02:32:51;;;;;;;;;;;;;;;-146.25;100.00;52124.91;2087698;28;32572;-63
2023/09/06 02:33:55;;;;;;;;;;;;;;;-146.25;100.00;52066.09;2088129;28;33644;-63
2023/09/06 02:34:58;;;;;;;;;;;;;;;-146.25;100.00;52080.28;2088651;28;24014;-64
2023/09/06 02:35:59;;;;;;;;;;;;;;;-146.25;100.00;52076.22;2088661;28;30745;-64
2023/09/06 02:37:03;;;;;;;;;;;;;;;-146.25;100.00;52108.66;2088435;28;20056;-64
2023/09/06 02:38:06;;;;;;;;;;;;;;;-146.25;100.00;52078.25;2088736;28;26249;-64
2023/09/06 02:39:08;;;;;;;;;;;;;;;-146.25;100.00;52086.38;2088770;28;19917;-64
2023/09/06 02:40:13;;;;;;;;;;;;;;;-146.25;100.00;52104.63;2088522;28;24483;-64
2023/09/06 02:41:15;;;;;;;;;;;;;;;-146.25;100.00;52100.56;2094789;28;20797;-64
2023/09/06 02:42:17;;;;;;;;;;;;;;;-146.25;100.00;52088.41;2097192;28;26519;-64
2023/09/06 02:43:20;;;;;;;;;;;;;;;-146.25;100.00;52133.00;2097914;28;20043;-65
2023/09/06 02:44:24;;;;;;;;;;;;;;;-146.25;100.00;52072.19;2097256;28;20866;-64
2023/09/06 02:45:36;;;;;;;;;;;;;;;-146.25;100.00;52116.78;2096965;28;27386;-64
2023/09/06 02:46:38;;;;;;;;;;;;;;;-146.25;100.00;52058.00;2097591;28;23733;-64
2023/09/06 02:47:48;;;;;;;;;;;;;;;-146.25;100.00;52076.22;2096845;28;33461;-64
2023/09/06 02:48:50;;;;;;;;;;;;;;;-146.25;100.00;52072.19;2097087;28;19924;-64
2023/09/06 02:49:55;;;;;;;;;;;;;;;-146.25;100.00;52082.31;2088600;28;20891;-64
2023/09/06 02:50:58;;;;;;;;;;;;;;;-146.25;100.00;52049.88;2096980;28;31196;-63
2023/09/06 02:51:59;;;;;;;;;;;;;;;-146.25;100.00;52096.50;2096605;28;20350;-64
2023/09/06 02:53:03;;;;;;;;;;;;;;;-146.25;100.00;52086.38;2096931;28;32382;-64
2023/09/06 02:54:05;;;;;;;;;;;;;;;-146.25;100.00;52116.78;2096706;28;28391;-64
2023/09/06 02:55:10;;;;;;;;;;;;;;;-146.25;100.00;52110.69;2097289;28;29744;-64
2023/09/06 02:56:14;;;;;;;;;;;;;;;-146.25;100.00;52080.28;2097019;28;32025;-63
2023/09/06 02:57:19;;;;;;;;;;;;;;;-146.25;100.00;52072.19;2097014;28;30880;-63
2023/09/06 02:58:26;;;;;;;;;;;;;;;-146.25;100.00;52064.06;2097034;28;28259;-64
2023/09/06 02:59:28;;;;;;;;;;;;;;;-146.25;100.00;52098.53;2097802;28;30399;-64
2023/09/06 03:00:35;;;;;;;;;;;;;;;-146.25;100.00;52100.56;2097503;28;20768;-63
2023/09/06 03:01:38;;;;;;;;;;;;;;;-146.25;100.00;52110.69;2097318;28;31510;-64
2023/09/06 03:02:41;;;;;;;;;;;;;;;-146.25;100.00;52047.84;2096651;28;24272;-64
2023/09/06 03:03:42;;;;;;;;;;;;;;;-146.25;100.00;52084.34;2097561;28;24874;-64
2023/09/06 03:04:44;;;;;;;;;;;;;;;-146.25;100.00;52088.41;2097450;28;25670;-63
2023/09/06 03:05:47;;;;;;;;;;;;;;;-146.25;100.00;52118.81;2097002;28;19924;-64
2023/09/06 03:06:50;;;;;;;;;;;;;;;-146.25;100.00;52082.31;2089133;28;20015;-64
2023/09/06 03:07:53;;;;;;;;;;;;;;;-146.25;100.00;52076.22;2097098;28;22077;-64
2023/09/06 03:09:00;;;;;;;;;;;;;;;-146.25;100.00;52092.44;2096850;28;20093;-64
2023/09/06 03:10:07;;;;;;;;;;;;;;;-146.25;100.00;52090.44;2097331;28;19917;-64
2023/09/06 03:11:11;;;;;;;;;;;;;;;-146.25;100.00;52074.22;2097360;28;19959;-64
2023/09/06 03:12:14;;;;;;;;;;;;;;;-146.25;100.00;52060.00;2096795;28;19979;-64
2023/09/06 03:13:20;;;;;;;;;;;;;;;-146.25;100.00;52072.19;2088610;28;20754;-64
2023/09/06 03:14:30;;;;;;;;;;;;;;;-146.25;100.00;52068.13;2081001;28;19921;-64
2023/09/06 03:15:32;;;;;;;;;;;;;;;-146.25;100.00;52088.41;2089769;28;19924;-64
2023/09/06 03:16:38;;;;;;;;;;;;;;;-146.25;100.00;52094.47;2088484;28;19921;-64
2023/09/06 03:17:46;;;;;;;;;;;;;;;-146.25;100.00;52096.50;2089429;28;20027;-64
2023/09/06 03:18:52;;;;;;;;;;;;;;;-146.25;100.00;52108.66;2087830;28;32969;-64
2023/09/06 03:19:59;;;;;;;;;;;;;;;-146.25;100.00;52080.28;2089064;28;19925;-64
2023/09/06 03:21:04;;;;;;;;;;;;;;;-146.25;100.00;52104.63;2096508;28;20777;-64
2023/09/06 03:22:09;;;;;;;;;;;;;;;-146.25;100.00;52078.25;2089651;28;19932;-64
2023/09/06 03:23:17;;;;;;;;;;;;;;;-146.25;100.00;52106.66;2088682;28;34083;-64
2023/09/06 03:24:25;;;;;;;;;;;;;;;-146.25;100.00;52055.97;2096765;28;19982;-64
2023/09/06 03:25:27;;;;;;;;;;;;;;;-146.25;100.00;52128.94;2096164;28;36559;-64
2023/09/06 03:26:29;;;;;;;;;;;;;;;-146.25;100.00;52092.44;2088755;28;29250;-63
2023/09/06 03:27:33;;;;;;;;;;;;;;;-146.25;100.00;52100.56;2080472;28;19922;-63
2023/09/06 03:28:37;;;;;;;;;;;;;;;-146.25;100.00;52112.72;2080132;28;20633;-64
2023/09/06 03:29:39;;;;;;;;;;;;;;;-146.25;100.00;52112.72;2088327;28;20003;-63
2023/09/06 03:30:44;;;;;;;;;;;;;;;-146.25;100.00;52124.91;2088882;28;19917;-65
2023/09/06 03:31:48;;;;;;;;;;;;;;;-146.25;100.00;52100.56;2088306;28;19929;-63
2023/09/06 03:32:51;;;;;;;;;;;;;;;-146.25;100.00;52141.13;2089063;28;19921;-64
2023/09/06 03:33:53;;;;;;;;;;;;;;;-146.25;100.00;52086.38;2096810;28;19934;-63
2023/09/06 03:34:56;;;;;;;;;;;;;;;-146.25;100.00;52082.31;2089434;28;19921;-64
2023/09/06 03:36:00;;;;;;;;;;;;;;;-146.25;100.00;52102.59;2088264;28;19942;-63
2023/09/06 03:37:08;;;;;;;;;;;;;;;-146.25;100.00;52110.69;2089142;28;19952;-64
2023/09/06 03:38:09;;;;;;;;;;;;;;;-146.25;100.00;52084.34;2087794;28;29169;-63
2023/09/06 03:39:14;;;;;;;;;;;;;;;-146.25;100.00;52088.41;2080544;28;20749;-64
2023/09/06 03:40:34;;;;;;;;;;;;;;;-146.25;100.00;52098.53;2087931;28;21891;-64
2023/09/06 03:41:36;;;;;;;;;;;;;;;-146.25;100.00;52114.75;2089372;28;20055;-65
2023/09/06 03:42:40;;;;;;;;;;;;;;;-146.25;100.00;52116.78;2088922;28;31279;-64
2023/09/06 03:43:42;;;;;;;;;;;;;;;-146.25;100.00;52114.75;2088338;28;20054;-64
2023/09/06 03:44:46;;;;;;;;;;;;;;;-146.25;100.00;52082.31;2088299;28;19921;-64
2023/09/06 03:45:51;;;;;;;;;;;;;;;-146.25;100.00;52108.66;2095975;28;30911;-64
2023/09/06 03:46:56;;;;;;;;;;;;;;;-146.25;100.00;52098.53;2096753;28;19924;-64
2023/09/06 03:47:58;;;;;;;;;;;;;;;-146.25;100.00;52098.53;2088691;28;31072;-64
2023/09/06 03:49:05;;;;;;;;;;;;;;;-146.25;100.00;52112.72;2088770;28;28991;-64
2023/09/06 03:50:08;;;;;;;;;;;;;;;-146.25;100.00;52122.88;2088787;28;19925;-64
2023/09/06 03:51:14;;;;;;;;;;;;;;;-146.25;100.00;52124.91;2087745;28;33223;-64
2023/09/06 03:52:16;;;;;;;;;;;;;;;-146.25;100.00;52110.69;2096584;28;19924;-64
2023/09/06 03:53:23;;;;;;;;;;;;;;;-146.25;100.00;52143.13;2088759;28;20007;-64
2023/09/06 03:54:27;;;;;;;;;;;;;;;-146.25;100.00;52135.03;2088662;28;19925;-64
2023/09/06 03:55:32;;;;;;;;;;;;;;;-146.25;100.00;52130.97;2088504;28;32252;-64
2023/09/06 03:56:39;;;;;;;;;;;;;;;-146.25;100.00;52092.44;2089237;28;19917;-64
2023/09/06 03:57:41;;;;;;;;;;;;;;;-146.25;100.00;52114.75;2096933;28;20852;-64
2023/09/06 03:58:42;;;;;;;;;;;;;;;-146.25;100.00;52128.94;2096661;28;19983;-64
2023/09/06 03:59:44;;;;;;;;;;;;;;;-146.25;100.00;52133.00;2088673;28;19925;-64
2023/09/06 04:00:47;;;;;;;;;;;;;;;-146.25;100.00;52108.66;2088252;28;19925;-64
2023/09/06 04:01:57;;;;;;;;;;;;;;;-146.25;100.00;52149.22;2081085;28;19920;-64
2023/09/06 04:03:03;;;;;;;;;;;;;;;-146.25;100.00;52124.91;2088668;28;20793;-64
2023/09/06 04:04:08;;;;;;;;;;;;;;;-146.25;100.00;52112.72;2096916;28;20059;-63
2023/09/06 04:05:11;;;;;;;;;;;;;;;-146.25;100.00;52110.69;2087807;28;19928;-64
2023/09/06 04:06:12;;;;;;;;;;;;;;;-146.25;100.00;52133.00;2080014;28;23143;-64
2023/09/06 04:07:14;;;;;;;;;;;;;;;-146.25;100.00;52092.44;2079866;28;19918;-64
2023/09/06 04:08:19;;;;;;;;;;;;;;;-146.25;100.00;52110.69;2080311;28;20645;-64
2023/09/06 04:09:28;;;;;;;;;;;;;;;-146.25;100.00;52139.09;2089356;28;19933;-63
2023/09/06 04:10:38;;;;;;;;;;;;;;;-146.25;100.00;52098.53;2087355;28;28798;-64
2023/09/06 04:11:40;;;;;;;;;;;;;;;-146.25;100.00;52126.91;2088427;28;19967;-65
2023/09/06 04:12:43;;;;;;;;;;;;;;;-146.25;100.00;52124.91;2088777;28;20043;-63
2023/09/06 04:13:45;;;;;;;;;;;;;;;-146.25;100.00;52147.19;2088713;28;19927;-63
2023/09/06 04:14:51;;;;;;;;;;;;;;;-146.25;100.00;52149.22;2088733;28;19925;-64
2023/09/06 04:15:53;;;;;;;;;;;;;;;-146.25;100.00;52116.78;2096671;28;19913;-63
2023/09/06 04:16:55;;;;;;;;;;;;;;;-146.25;100.00;52094.47;2095970;28;19925;-63
2023/09/06 04:17:58;;;;;;;;;;;;;;;-146.25;100.00;52137.06;2088460;28;20074;-64
2023/09/06 04:19:01;;;;;;;;;;;;;;;-146.25;100.00;52104.63;2088371;28;19936;-64
2023/09/06 04:20:18;;;;;;;;;;;;;;;-146.25;100.00;52120.84;2088134;28;28585;-64
2023/09/06 04:21:20;;;;;;;;;;;;;;;-146.25;100.00;52124.91;2096927;28;20178;-63
2023/09/06 04:22:21;;;;;;;;;;;;;;;-146.25;100.00;52143.13;2097239;28;20075;-64
2023/09/06 04:23:25;;;;;;;;;;;;;;;-146.25;100.00;52133.00;2097101;28;20037;-64
2023/09/06 04:24:30;;;;;;;;;;;;;;;-146.25;100.00;52120.84;2096849;28;20847;-64
2023/09/06 04:25:41;;;;;;;;;;;;;;;-146.25;100.00;52112.72;2096498;28;20725;-64
2023/09/06 04:26:45;;;;;;;;;;;;;;;-146.25;100.00;52116.78;2096657;28;19917;-64
2023/09/06 04:27:54;;;;;;;;;;;;;;;-146.25;100.00;52128.94;2088255;28;20047;-64
2023/09/06 04:28:57;;;;;;;;;;;;;;;-146.25;100.00;52141.13;2089678;28;20041;-64
2023/09/06 04:29:59;;;;;;;;;;;;;;;-146.25;100.00;52104.63;2096013;28;25880;-63
2023/09/06 04:31:03;;;;;;;;;;;;;;;-146.25;100.00;52126.91;2096854;28;19924;-64
2023/09/06 04:32:10;;;;;;;;;;;;;;;-146.25;100.00;52106.66;2089024;28;20010;-64
2023/09/06 04:33:15;;;;;;;;;;;;;;;-146.25;100.00;52116.78;2089637;28;19928;-62
2023/09/06 04:34:26;;;;;;;;;;;;;;;-146.25;100.00;52133.00;2097378;28;20749;-63
2023/09/06 04:35:42;;;;;;;;;;;;;;;-146.25;100.00;52155.31;2096795;28;19928;-64
2023/09/06 04:36:45;;;;;;;;;;;;;;;-146.25;100.00;52128.94;2095448;28;19920;-64
2023/09/06 04:37:46;;;;;;;;;;;;;;;-146.25;100.00;52112.72;2096806;28;20486;-64
2023/09/06 04:38:49;;;;;;;;;;;;;;;-146.25;100.00;52118.81;2096489;28;19924;-64
2023/09/06 04:39:53;;;;;;;;;;;;;;;-146.25;100.00;52155.31;2096927;28;19927;-64
2023/09/06 04:40:54;;;;;;;;;;;;;;;-146.25;100.00;52128.94;2096733;28;21229;-63
2023/09/06 04:41:59;;;;;;;;;;;;;;;-146.25;100.00;52161.38;2096413;28;20051;-64
2023/09/06 04:43:03;;;;;;;;;;;;;;;-146.25;100.00;52139.09;2088898;28;19923;-64
2023/09/06 04:44:05;;;;;;;;;;;;;;;-146.25;100.00;52151.25;2096565;28;20014;-64
2023/09/06 04:45:11;;;;;;;;;;;;;;;-146.25;100.00;52137.06;2096596;28;19932;-63
2023/09/06 04:46:14;;;;;;;;;;;;;;;-146.25;100.00;52137.06;2088889;28;20808;-64
2023/09/06 04:47:20;;;;;;;;;;;;;;;-146.25;100.00;52141.13;2097205;28;19920;-63
2023/09/06 04:48:23;;;;;;;;;;;;;;;-146.25;100.00;52143.13;2105113;28;19924;-63
2023/09/06 04:49:29;;;;;;;;;;;;;;;-146.25;100.00;52124.91;2096449;28;19924;-63
2023/09/06 04:50:31;;;;;;;;;;;;;;;-146.25;100.00;52133.00;2088272;28;19921;-64
2023/09/06 04:51:33;;;;;;;;;;;;;;;-146.25;100.00;52147.19;2096130;28;25332;-64
2023/09/06 04:52:47;;;;;;;;;;;;;;;-146.25;100.00;52130.97;2096290;28;19921;-64
2023/09/06 04:53:50;;;;;;;;;;;;;;;-146.25;100.00;52155.31;2096467;28;19927;-64
2023/09/06 04:54:58;;;;;;;;;;;;;;;-146.25;100.00;52153.28;2089013;28;19921;-63
2023/09/06 04:56:03;;;;;;;;;;;;;;;-146.25;100.00;52153.28;2088100;28;20828;-64
2023/09/06 04:57:16;;;;;;;;;;;;;;;-146.25;100.00;52135.03;2091360;28;20907;-64
2023/09/06 04:58:18;;;;;;;;;;;;;;;-146.25;100.00;52157.34;2098197;28;19920;-64
2023/09/06 04:59:20;;;;;;;;;;;;;;;-146.25;100.00;52108.66;2098285;28;19920;-64
2023/09/06 05:00:26;;;;;;;;;;;;;;;-146.25;100.00;52133.00;2097744;28;30793;-64
2023/09/06 05:01:32;;;;;;;;;;;;;;;-146.25;100.00;52153.28;2098163;28;33453;-63
2023/09/06 05:02:33;;;;;;;;;;;;;;;-146.25;100.00;52185.72;2098660;28;19990;-63
2023/09/06 05:03:35;;;;;;;;;;;;;;;-146.25;100.00;52133.00;2098511;28;19928;-63
2023/09/06 05:04:42;;;;;;;;;;;;;;;-146.25;100.00;52133.00;2097954;28;20053;-64
2023/09/06 05:05:46;;;;;;;;;;;;;;;-146.25;100.00;52149.22;2098059;28;19913;-64
2023/09/06 05:06:48;;;;;;;;;;;;;;;-146.25;100.00;52141.13;2097646;28;20886;-64
2023/09/06 05:07:50;;;;;;;;;;;;;;;-146.25;100.00;52118.81;2097856;28;19920;-64
2023/09/06 05:08:53;;;;;;;;;;;;;;;-146.25;100.00;52128.94;2097827;28;19928;-64
2023/09/06 05:09:58;;;;;;;;;;;;;;;-146.25;100.00;52135.03;2089976;28;19924;-63
2023/09/06 05:10:59;;;;;;;;;;;;;;;-146.25;100.00;52118.81;2089420;28;19913;-64
2023/09/06 05:12:03;;;;;;;;;;;;;;;-146.25;100.00;52147.19;2097812;28;19994;-63
2023/09/06 05:13:07;;;;;;;;;;;;;;;-146.25;100.00;52124.91;2098026;28;20054;-64
2023/09/06 05:14:13;;;;;;;;;;;;;;;-146.25;100.00;52133.00;2090086;28;19955;-63
2023/09/06 05:15:15;;;;;;;;;;;;;;;-146.25;100.00;52147.19;2089167;28;19925;-64
2023/09/06 05:16:18;;;;;;;;;;;;;;;-146.25;100.00;52143.13;2097636;28;19925;-64
2023/09/06 05:17:20;;;;;;;;;;;;;;;-146.25;100.00;52179.63;2089596;28;19932;-64
2023/09/06 05:18:22;;;;;;;;;;;;;;;-146.25;100.00;52153.28;2097834;28;19920;-63
2023/09/06 05:19:27;;;;;;;;;;;;;;;-146.25;100.00;52161.38;2106116;28;20879;-65